Time;durP1;ratioP1;P1;durP2;ratioP2;P2;SDS_P1;SDS_P2;PMS_P1;PMS_P2;Temp;Humidity;BMP_temperature;BMP_pressure;BME280_temperature;BME280_humidity;BME280_pressure;Samples;Min_cycle;Max_cycle;Signal;HPM_P1;HPM_P2
2021/11/02 00:00:38;;;;;;;6.90;2.55;;;15.70;96.70;;;;;;5059419;28;20036;-88
2021/11/02 00:03:07;;;;;;;5.55;1.70;;;15.70;96.70;;;;;;5064497;28;20055;-89
2021/11/02 00:05:37;;;;;;;6.35;1.38;;;15.70;96.70;;;;;;5063275;28;20055;-88
2021/11/02 00:08:06;;;;;;;3.70;1.02;;;15.70;96.70;;;;;;5063607;28;20048;-88
2021/11/02 00:10:35;;;;;;;2.85;0.60;;;15.70;96.70;;;;;;5064448;28;20092;-89
2021/11/02 00:13:03;;;;;;;4.20;0.90;;;15.70;96.70;;;;;;5065718;28;20033;-88
2021/11/02 00:15:36;;;;;;;3.47;0.70;;;15.70;96.70;;;;;;5064772;28;20048;-90
2021/11/02 00:18:07;;;;;;;2.92;0.70;;;15.70;96.70;;;;;;5064409;28;20501;-88
2021/11/02 00:20:38;;;;;;;1.65;0.30;;;15.70;96.70;;;;;;5064787;28;20049;-88
2021/11/02 00:23:09;;;;;;;2.67;0.70;;;15.80;96.70;;;;;;5047817;28;20045;-88
2021/11/02 00:25:37;;;;;;;6.05;1.23;;;15.80;96.70;;;;;;5064304;28;20100;-87
2021/11/02 00:28:06;;;;;;;2.60;0.38;;;15.80;96.70;;;;;;5064590;28;20055;-87
2021/11/02 00:30:34;;;;;;;3.58;0.50;;;15.80;96.70;;;;;;5048973;28;20135;-88
2021/11/02 00:33:03;;;;;;;3.33;0.70;;;15.80;96.70;;;;;;5063608;28;20517;-88
2021/11/02 00:35:32;;;;;;;4.30;0.63;;;15.80;96.70;;;;;;5064760;28;20040;-89
2021/11/02 00:38:02;;;;;;;2.38;0.47;;;15.80;96.70;;;;;;5063613;28;20037;-88
2021/11/02 00:40:30;;;;;;;2.85;0.57;;;15.90;96.70;;;;;;5042897;28;20536;-87
2021/11/02 00:43:01;;;;;;;2.95;0.60;;;16.00;96.70;;;;;;5063877;28;20071;-88
2021/11/02 00:45:36;;;;;;;3.45;0.93;;;16.00;96.70;;;;;;5046365;28;20143;-87
2021/11/02 00:48:08;;;;;;;2.45;0.70;;;16.00;96.70;;;;;;5064031;28;20096;-88
2021/11/02 00:50:36;;;;;;;2.33;0.52;;;15.90;96.70;;;;;;5047536;28;20048;-88
2021/11/02 00:53:07;;;;;;;2.25;0.70;;;15.90;96.70;;;;;;5063161;28;20044;-87
2021/11/02 00:55:36;;;;;;;2.90;0.50;;;15.90;96.70;;;;;;5045470;28;20037;-88
2021/11/02 00:58:06;;;;;;;1.25;0.50;;;15.80;96.70;;;;;;5048175;28;20042;-89
2021/11/02 01:00:35;;;;;;;1.40;0.60;;;15.90;96.70;;;;;;5058798;28;20053;-88
2021/11/02 01:03:06;;;;;;;2.25;0.50;;;15.80;96.70;;;;;;5062343;28;20469;-90
2021/11/02 01:05:34;;;;;;;1.80;0.63;;;15.80;96.70;;;;;;5063595;28;20044;-91
2021/11/02 01:08:03;;;;;;;4.10;0.60;;;15.70;96.70;;;;;;5061708;28;20041;-91
2021/11/02 01:10:34;;;;;;;4.45;0.70;;;15.70;96.70;;;;;;5063660;28;20056;-90
2021/11/02 01:13:03;;;;;;;2.55;0.43;;;15.70;96.70;;;;;;5064282;28;20041;-90
2021/11/02 01:15:31;;;;;;;5.32;1.15;;;15.70;96.70;;;;;;5049454;28;20036;-90
2021/11/02 01:18:00;;;;;;;2.08;0.52;;;15.70;96.70;;;;;;5064190;28;20040;-90
2021/11/02 01:20:34;;;;;;;2.22;0.50;;;15.70;96.70;;;;;;5063656;28;20398;-90
2021/11/02 01:23:05;;;;;;;2.13;0.60;;;15.60;96.70;;;;;;5065915;28;20140;-90
2021/11/02 01:25:35;;;;;;;2.47;0.88;;;15.70;96.70;;;;;;5062422;28;20056;-90
2021/11/02 01:28:05;;;;;;;3.47;0.90;;;15.70;96.70;;;;;;5062624;28;20436;-90
2021/11/02 01:30:40;;;;;;;4.55;0.95;;;15.70;96.70;;;;;;5062878;28;20106;-91
2021/11/02 01:33:13;;;;;;;2.63;0.70;;;15.60;96.70;;;;;;5045484;28;20048;-92
2021/11/02 01:35:46;;;;;;;3.28;0.57;;;15.70;96.70;;;;;;5082222;28;20322;-93
2021/11/02 01:38:18;;;;;;;5.32;0.80;;;15.60;96.70;;;;;;5065001;28;20044;-92
2021/11/02 01:40:51;;;;;;;2.28;0.60;;;15.50;96.70;;;;;;5064144;28;20063;-91
2021/11/02 01:43:20;;;;;;;3.95;0.75;;;15.50;96.70;;;;;;5062978;28;20129;-88
2021/11/02 01:45:49;;;;;;;2.25;0.65;;;15.50;96.70;;;;;;5064006;28;20036;-87
2021/11/02 01:48:23;;;;;;;2.63;0.55;;;15.40;96.70;;;;;;5063522;28;20029;-87
2021/11/02 01:50:53;;;;;;;1.45;0.43;;;15.40;96.70;;;;;;5063375;28;20048;-86
2021/11/02 01:53:21;;;;;;;5.63;0.68;;;15.40;96.70;;;;;;5062661;28;20139;-87
2021/11/02 01:55:55;;;;;;;1.90;0.77;;;15.60;96.70;;;;;;5056905;28;20048;-88
2021/11/02 01:58:24;;;;;;;4.85;1.10;;;15.70;96.70;;;;;;5038863;28;20044;-88
2021/11/02 02:01:00;;;;;;;1.00;0.57;;;15.80;96.70;;;;;;5062710;28;20044;-88
2021/11/02 02:03:40;;;;;;;3.72;0.50;;;15.80;96.70;;;;;;5057730;28;20494;-87
2021/11/02 02:06:18;;;;;;;3.08;0.68;;;15.80;96.70;;;;;;5063028;28;20055;-87
2021/11/02 02:09:02;;;;;;;1.70;0.50;;;15.80;96.70;;;;;;5042474;28;20049;-87
2021/11/02 02:11:55;;;;;;;3.67;0.90;;;15.80;96.70;;;;;;5062712;28;20441;-87
2021/11/02 02:14:37;;;;;;;3.65;0.80;;;15.70;96.70;;;;;;5046411;28;20074;-88
2021/11/02 02:17:14;;;;;;;2.40;0.50;;;15.70;96.70;;;;;;5042896;28;20103;-87
2021/11/02 02:19:49;;;;;;;3.53;0.82;;;15.70;96.70;;;;;;5063812;28;20032;-87
2021/11/02 02:22:41;;;;;;;2.50;0.73;;;15.70;96.70;;;;;;5046221;28;20044;-88
2021/11/02 02:25:31;;;;;;;2.40;0.60;;;15.60;96.70;;;;;;5062824;28;20128;-88
2021/11/02 02:28:15;;;;;;;2.78;0.47;;;15.60;96.70;;;;;;5060350;28;20049;-88
2021/11/02 02:30:47;;;;;;;6.60;0.60;;;15.60;96.70;;;;;;5073786;28;20045;-84
2021/11/02 02:33:22;;;;;;;3.20;0.47;;;15.60;96.70;;;;;;5059957;28;20099;-85
2021/11/02 02:35:52;;;;;;;2.20;0.77;;;15.70;96.70;;;;;;5060914;28;20594;-85
2021/11/02 02:38:24;;;;;;;1.88;0.60;;;15.60;96.70;;;;;;5039200;28;20044;-84
2021/11/02 02:40:57;;;;;;;3.33;0.52;;;15.70;96.70;;;;;;5061809;28;20039;-85
2021/11/02 02:43:36;;;;;;;2.42;0.80;;;15.70;96.70;;;;;;5041801;28;20521;-85
2021/11/02 02:46:06;;;;;;;2.97;0.60;;;15.70;96.70;;;;;;5059444;28;20041;-84
2021/11/02 02:48:35;;;;;;;3.85;1.00;;;15.70;96.70;;;;;;5043853;28;20063;-85
2021/11/02 02:51:04;;;;;;;2.03;0.70;;;15.70;96.70;;;;;;5045126;28;20051;-84
2021/11/02 02:53:35;;;;;;;2.83;0.73;;;15.70;96.70;;;;;;5062295;28;20075;-84
2021/11/02 02:56:08;;;;;;;3.35;0.82;;;15.70;96.70;;;;;;5042593;28;20049;-85
2021/11/02 02:58:43;;;;;;;2.25;0.77;;;15.70;96.70;;;;;;5048621;28;20048;-84
2021/11/02 03:01:13;;;;;;;1.52;0.50;;;15.70;96.70;;;;;;5064342;28;20409;-85
2021/11/02 03:03:47;;;;;;;3.97;0.50;;;15.70;96.70;;;;;;5062523;28;20616;-85
2021/11/02 03:06:23;;;;;;;2.45;0.50;;;15.60;96.70;;;;;;5049222;28;20121;-84
2021/11/02 03:08:55;;;;;;;2.33;0.55;;;15.50;96.70;;;;;;5063633;28;20052;-85
2021/11/02 03:11:30;;;;;;;2.92;0.60;;;15.40;96.70;;;;;;5061149;28;20439;-84
2021/11/02 03:14:05;;;;;;;6.10;0.85;;;15.40;96.70;;;;;;5041335;28;20103;-84
2021/11/02 03:16:57;;;;;;;3.10;0.98;;;15.30;96.70;;;;;;5078896;28;20046;-84
2021/11/02 03:48:01;;;;;;;2.30;0.40;;;14.90;96.70;;;;;;5063332;28;20055;-85
2021/11/02 03:58:58;;;;;;;4.67;0.63;;;14.90;96.70;;;;;;5065562;28;20405;-84
2021/11/02 05:11:43;;;;;;;15.02;2.58;;;15.30;96.70;;;;;;5063509;28;20052;-85
2021/11/02 05:48:32;;;;;;;12.27;2.22;;;14.80;96.70;;;;;;5056630;28;20044;-83
2021/11/02 05:51:37;;;;;;;9.93;1.55;;;14.80;96.70;;;;;;5062831;28;20336;-84
2021/11/02 05:56:31;;;;;;;13.63;2.10;;;14.80;96.70;;;;;;5061960;28;20064;-84
2021/11/02 05:59:49;;;;;;;16.70;2.67;;;14.80;96.70;;;;;;5061436;28;20044;-83
2021/11/02 06:04:55;;;;;;;11.18;2.03;;;14.90;96.70;;;;;;5060506;28;20052;-84
2021/11/02 06:07:44;;;;;;;13.65;2.40;;;15.00;96.70;;;;;;5060713;28;20126;-83
2021/11/02 06:27:53;;;;;;;13.80;2.22;;;15.10;96.70;;;;;;5061573;28;20040;-83
2021/11/02 06:30:30;;;;;;;16.25;3.25;;;15.10;96.70;;;;;;5061192;28;20045;-83
2021/11/02 06:33:14;;;;;;;13.38;2.33;;;15.10;96.70;;;;;;5042496;28;20585;-83
2021/11/02 06:35:57;;;;;;;18.23;2.70;;;15.20;96.70;;;;;;5069851;28;20076;-83
2021/11/02 06:55:20;;;;;;;13.10;2.30;;;15.80;96.70;;;;;;5070925;28;20040;-83
2021/11/02 07:20:27;;;;;;;14.50;2.25;;;16.20;96.70;;;;;;5068303;28;20045;-84
2021/11/02 07:25:54;;;;;;;9.75;2.00;;;16.20;96.70;;;;;;5078226;28;19920;-84
2021/11/02 08:48:05;;;;;;;14.82;2.45;;;17.50;96.70;;;;;;5058344;28;20044;-86
2021/11/02 08:50:41;;;;;;;12.68;2.72;;;17.60;96.70;;;;;;5056314;28;20048;-86
2021/11/02 08:53:10;;;;;;;;;;;17.60;96.70;;;;;;5058071;28;20064;-87
2021/11/02 08:55:40;;;;;;;13.45;2.55;;;17.70;96.70;;;;;;5080664;28;19960;-84
2021/11/02 08:58:08;;;;;;;18.38;3.70;;;17.70;96.70;;;;;;5057174;28;20555;-86
2021/11/02 09:00:37;;;;;;;15.75;2.60;;;17.60;96.70;;;;;;5063539;28;20484;-83
2021/11/02 09:03:23;;;;;;;13.70;3.03;;;17.60;96.70;;;;;;5043561;28;20194;-82
2021/11/02 09:05:55;;;;;;;14.48;2.65;;;17.70;96.70;;;;;;5045932;28;20044;-88
2021/11/02 09:08:27;;;;;;;18.75;2.97;;;17.80;96.70;;;;;;5042436;28;20037;-89
2021/11/02 09:10:57;;;;;;;13.50;2.58;;;18.00;96.70;;;;;;5062958;28;20533;-89
2021/11/02 09:13:32;;;;;;;13.23;2.05;;;18.10;96.70;;;;;;5061364;28;20082;-90
2021/11/02 09:16:02;;;;;;;9.30;2.35;;;18.20;96.70;;;;;;5048688;28;20056;-91
2021/11/02 09:18:30;;;;;;;13.40;2.38;;;18.30;96.70;;;;;;5061842;28;20047;-93
2021/11/02 09:21:00;;;;;;;11.00;1.95;;;18.40;96.70;;;;;;5060099;28;20041;-91
2021/11/02 09:23:29;;;;;;;18.33;4.07;;;18.50;96.70;;;;;;5062165;28;20070;-89
2021/11/02 09:25:57;;;;;;;14.90;2.85;;;18.60;96.70;;;;;;5045916;28;20036;-89
2021/11/02 09:28:26;;;;;;;16.13;2.65;;;18.50;96.70;;;;;;5041533;28;20143;-84
2021/11/02 09:30:54;;;;;;;12.52;2.72;;;18.30;96.70;;;;;;5059169;28;20041;-90
2021/11/02 09:33:23;;;;;;;19.10;2.90;;;18.30;96.70;;;;;;5064400;28;20106;-87
2021/11/02 09:35:57;;;;;;;17.52;2.45;;;18.40;96.70;;;;;;5059503;28;20040;-84
2021/11/02 09:38:32;;;;;;;9.30;2.30;;;18.40;96.70;;;;;;5073128;28;20106;-85
2021/11/02 09:41:33;;;;;;;10.27;2.33;;;18.40;96.70;;;;;;5045250;28;20045;-85
2021/11/02 09:44:24;;;;;;;11.02;2.00;;;18.50;96.70;;;;;;5062843;28;20541;-90
2021/11/02 09:47:18;;;;;;;9.77;2.20;;;18.40;96.70;;;;;;5057242;28;20588;-86
2021/11/02 09:50:13;;;;;;;25.92;3.35;;;18.40;96.70;;;;;;5075691;28;20045;-87
2021/11/02 09:53:08;;;;;;;9.82;2.00;;;18.20;96.70;;;;;;5060416;28;20048;-89
2021/11/02 09:56:03;;;;;;;13.13;2.37;;;18.00;96.70;;;;;;5056753;28;20040;-88
2021/11/02 09:58:57;;;;;;;15.73;2.90;;;17.90;96.70;;;;;;5057874;28;20751;-88
2021/11/02 10:01:32;;;;;;;7.63;1.52;;;17.70;96.70;;;;;;5022457;28;20514;-85
2021/11/02 10:04:34;;;;;;;10.90;1.67;;;17.60;96.70;;;;;;5061177;28;20438;-88
2021/11/02 10:07:25;;;;;;;12.20;1.88;;;17.60;96.70;;;;;;5061318;28;20141;-85
2021/11/02 10:09:59;;;;;;;12.82;2.15;;;17.60;96.70;;;;;;5044031;28;20048;-84
2021/11/02 10:12:41;;;;;;;8.90;2.53;;;18.00;96.70;;;;;;5056617;28;20457;-85
2021/11/02 10:15:34;;;;;;;5.80;1.50;;;18.00;96.70;;;;;;5060012;28;20136;-88
2021/11/02 10:18:36;;;;;;;8.52;1.83;;;17.80;96.70;;;;;;5063589;28;20563;-81
2021/11/02 10:21:51;;;;;;;17.38;2.38;;;17.60;96.70;;;;;;5060488;28;20413;-83
2021/11/02 10:24:45;;;;;;;10.63;1.95;;;17.50;96.70;;;;;;5041061;28;20071;-85
2021/11/02 10:27:28;;;;;;;10.00;2.10;;;17.40;96.70;;;;;;5038979;28;20045;-86
2021/11/02 10:30:26;;;;;;;12.10;2.38;;;17.40;96.70;;;;;;5057907;28;20139;-87
2021/11/02 10:33:01;;;;;;;11.50;2.88;;;17.30;96.70;;;;;;5054342;28;20060;-87
2021/11/02 10:36:02;;;;;;;14.55;2.53;;;17.20;96.70;;;;;;5058136;28;20052;-86
2021/11/02 10:38:44;;;;;;;12.30;2.20;;;17.30;96.70;;;;;;5055030;28;20495;-87
2021/11/02 10:41:20;;;;;;;12.75;2.83;;;17.50;96.70;;;;;;5057547;28;20122;-86
2021/11/02 10:44:05;;;;;;;15.65;2.75;;;17.50;96.70;;;;;;4997242;28;20056;-86
2021/11/02 10:46:37;;;;;;;13.57;3.40;;;17.50;96.70;;;;;;4966253;28;20153;-86
2021/11/02 10:49:15;;;;;;;17.98;2.78;;;17.50;96.70;;;;;;4988371;28;20038;-85
2021/11/02 10:51:54;;;;;;;20.90;3.60;;;17.40;96.70;;;;;;4982948;28;20053;-85
2021/11/02 10:54:37;;;;;;;14.43;2.42;;;17.40;96.70;;;;;;4978972;28;20144;-84
2021/11/02 10:57:24;;;;;;;9.90;2.55;;;17.30;96.70;;;;;;4979020;28;20656;-85
2021/11/02 11:00:00;;;;;;;8.98;2.33;;;17.30;96.70;;;;;;4978710;28;20411;-84
2021/11/02 11:02:30;;;;;;;13.68;2.65;;;17.20;96.70;;;;;;4997669;28;20046;-85
2021/11/02 11:04:59;;;;;;;9.25;2.47;;;17.30;96.70;;;;;;4988669;28;20141;-84
2021/11/02 11:07:28;;;;;;;12.75;2.35;;;17.30;96.70;;;;;;4985499;28;20358;-86
2021/11/02 11:09:56;;;;;;;13.80;2.60;;;17.30;96.70;;;;;;4985152;28;20320;-85
2021/11/02 11:12:27;;;;;;;12.93;2.33;;;17.30;96.70;;;;;;4997539;28;20064;-84
2021/11/02 11:15:01;;;;;;;16.70;2.65;;;17.30;96.70;;;;;;5000478;28;20112;-84
2021/11/02 11:17:33;;;;;;;12.63;2.92;;;17.30;96.70;;;;;;4987892;28;20145;-86
2021/11/02 11:20:12;;;;;;;11.45;2.08;;;17.30;96.70;;;;;;4987678;28;20053;-86
2021/11/02 11:22:42;;;;;;;14.88;3.13;;;17.40;96.70;;;;;;4972300;28;20053;-85
2021/11/02 11:25:13;;;;;;;13.13;2.47;;;17.40;96.70;;;;;;4995557;28;20096;-86
2021/11/02 11:27:48;;;;;;;13.38;2.63;;;17.60;96.70;;;;;;5037882;28;20045;-86
2021/11/02 11:30:17;;;;;;;12.25;2.45;;;17.80;96.70;;;;;;5064105;28;20133;-85
2021/11/02 11:32:48;;;;;;;11.60;2.38;;;18.00;96.70;;;;;;5047904;28;20056;-86
2021/11/02 11:35:17;;;;;;;13.52;2.15;;;18.10;96.70;;;;;;5064493;28;20482;-84
2021/11/02 11:37:46;;;;;;;9.85;2.42;;;18.20;96.70;;;;;;5063269;28;20078;-83
2021/11/02 11:40:18;;;;;;;10.57;1.95;;;18.20;96.70;;;;;;5047193;28;20033;-83
2021/11/02 11:42:47;;;;;;;7.15;1.63;;;18.30;96.70;;;;;;5044736;28;20111;-84
2021/11/02 11:45:18;;;;;;;7.85;1.85;;;18.40;96.70;;;;;;5063974;28;20114;-81
2021/11/02 11:48:04;;;;;;;9.40;1.85;;;18.40;96.70;;;;;;5064736;28;20461;-84
2021/11/02 11:50:34;;;;;;;12.60;2.00;;;18.40;96.70;;;;;;5045690;28;20464;-83
2021/11/02 11:53:03;;;;;;;8.80;1.42;;;18.50;96.70;;;;;;5064916;28;20048;-83
2021/11/02 11:55:33;;;;;;;8.88;1.65;;;18.50;96.70;;;;;;5060938;28;20048;-85
2021/11/02 11:58:12;;;;;;;9.00;2.05;;;18.50;96.70;;;;;;5065304;28;20131;-81
2021/11/02 12:00:42;;;;;;;9.63;1.63;;;18.50;96.70;;;;;;5041513;28;20052;-83
2021/11/02 12:03:34;;;;;;;11.88;1.70;;;18.40;96.70;;;;;;5066271;28;20036;-87
2021/11/02 12:06:09;;;;;;;6.53;1.60;;;18.50;96.70;;;;;;5062882;28;20076;-90
2021/11/02 12:08:50;;;;;;;12.88;2.20;;;18.60;96.70;;;;;;5059269;28;20049;-90
2021/11/02 12:11:21;;;;;;;10.60;1.92;;;18.70;96.70;;;;;;5062613;28;20068;-89
2021/11/02 12:13:54;;;;;;;9.15;1.83;;;18.80;96.70;;;;;;5064253;28;20045;-87
2021/11/02 12:16:33;;;;;;;8.40;1.45;;;18.90;96.70;;;;;;5044534;28;20135;-83
2021/11/02 12:19:06;;;;;;;5.95;1.63;;;19.20;96.70;;;;;;5046729;28;20049;-84
2021/11/02 12:21:36;;;;;;;7.55;1.48;;;19.40;96.70;;;;;;5063820;28;20040;-84
2021/11/02 12:24:08;;;;;;;7.95;1.45;;;19.50;96.70;;;;;;5074891;28;20190;-90
2021/11/02 12:26:39;;;;;;;7.38;1.30;;;19.50;96.70;;;;;;5061926;28;20064;-88
2021/11/02 12:29:11;;;;;;;7.57;1.35;;;19.50;96.70;;;;;;5045893;28;20044;-89
2021/11/02 12:31:40;;;;;;;8.73;2.10;;;19.80;96.70;;;;;;5064512;28;20322;-84
2021/11/02 12:34:16;;;;;;;6.50;1.30;;;19.90;96.70;;;;;;5045682;28;20048;-81
2021/11/02 12:36:50;;;;;;;8.73;2.08;;;19.70;96.70;;;;;;5060512;28;20075;-86
2021/11/02 12:39:24;;;;;;;7.85;1.33;;;19.40;96.70;;;;;;5063390;28;20040;-84
2021/11/02 12:41:54;;;;;;;6.95;1.45;;;19.30;96.70;;;;;;5061477;28;20690;-82
2021/11/02 12:44:26;;;;;;;13.23;1.80;;;19.60;96.70;;;;;;5060199;28;20132;-86
2021/11/02 12:46:56;;;;;;;5.85;1.23;;;19.50;96.70;;;;;;5065232;28;20051;-83
2021/11/02 12:49:39;;;;;;;10.70;1.70;;;19.40;96.70;;;;;;5051085;28;20047;-88
2021/11/02 12:52:10;;;;;;;9.50;2.03;;;19.60;96.70;;;;;;5064600;28;20540;-89
2021/11/02 12:54:40;;;;;;;10.95;1.95;;;19.70;96.70;;;;;;5059120;28;20071;-86
2021/11/02 12:57:13;;;;;;;7.72;1.35;;;19.90;96.70;;;;;;5049231;28;20076;-86
2021/11/02 12:59:47;;;;;;;9.80;1.80;;;20.00;96.70;;;;;;5072950;28;20071;-85
2021/11/02 13:02:20;;;;;;;10.35;1.85;;;19.90;96.70;;;;;;5071746;28;20028;-86
2021/11/02 13:04:59;;;;;;;7.47;1.42;;;19.90;96.70;;;;;;5083014;28;20439;-87
2021/11/02 13:07:33;;;;;;;11.75;1.90;;;19.80;96.70;;;;;;5062613;28;20078;-87
2021/11/02 13:10:03;;;;;;;7.68;1.50;;;19.90;96.70;;;;;;5064704;28;20048;-82
2021/11/02 13:12:33;;;;;;;9.57;1.75;;;19.90;96.70;;;;;;5060127;28;20050;-86
2021/11/02 13:15:10;;;;;;;8.90;2.10;;;19.60;96.70;;;;;;5062196;28;20048;-89
2021/11/02 13:17:42;;;;;;;5.38;1.58;;;19.50;96.70;;;;;;5063889;28;20043;-89
2021/11/02 13:20:26;;;;;;;10.07;1.70;;;19.30;96.70;;;;;;5065684;28;20041;-85
2021/11/02 13:22:55;;;;;;;10.63;1.70;;;19.10;96.70;;;;;;5059269;28;20052;-89
2021/11/02 13:25:35;;;;;;;6.93;1.40;;;19.10;96.70;;;;;;5064086;28;20461;-88
2021/11/02 13:28:03;;;;;;;;;;;19.00;96.70;;;;;;5065669;28;20421;-88
2021/11/02 13:30:34;;;;;;;8.70;1.75;;;19.10;96.70;;;;;;5060506;28;19928;-85
2021/11/02 13:33:05;;;;;;;8.18;1.58;;;19.30;96.70;;;;;;5062034;28;20523;-83
2021/11/02 13:36:02;;;;;;;5.35;1.30;;;19.30;96.70;;;;;;5050219;28;20044;-81
2021/11/02 13:38:36;;;;;;;6.32;1.40;;;19.20;96.70;;;;;;5054243;28;20040;-79
2021/11/02 13:41:17;;;;;;;7.78;1.85;;;19.20;96.70;;;;;;5060705;28;20046;-81
2021/11/02 13:43:47;;;;;;;10.57;1.70;;;19.10;96.70;;;;;;5056829;28;20148;-85
2021/11/02 13:46:23;;;;;;;6.65;1.65;;;19.10;96.70;;;;;;5061152;28;20287;-84
2021/11/02 13:48:54;;;;;;;9.27;1.60;;;18.90;96.70;;;;;;5061031;28;20130;-86
2021/11/02 13:51:25;;;;;;;5.00;1.10;;;18.70;96.70;;;;;;5039466;28;20054;-89
2021/11/02 13:53:54;;;;;;;7.07;1.58;;;18.70;96.70;;;;;;5049973;28;20040;-89
2021/11/02 13:56:27;;;;;;;7.38;1.30;;;18.70;96.70;;;;;;5044654;28;20032;-90
2021/11/02 13:58:57;;;;;;;12.43;1.90;;;18.60;96.70;;;;;;5048595;28;20041;-89
2021/11/02 14:01:29;;;;;;;9.38;1.35;;;18.70;96.70;;;;;;5046557;28;20616;-86
2021/11/02 14:04:08;;;;;;;8.52;1.60;;;18.90;96.70;;;;;;5061423;28;20048;-90
2021/11/02 14:06:41;;;;;;;7.07;1.55;;;18.80;96.70;;;;;;5042152;28;20414;-86
2021/11/02 14:09:13;;;;;;;7.63;1.77;;;18.70;96.70;;;;;;5064590;28;20055;-88
2021/11/02 14:11:41;;;;;;;10.27;2.03;;;18.70;96.70;;;;;;5059895;28;20032;-87
2021/11/02 14:14:10;;;;;;;10.48;1.67;;;18.60;96.70;;;;;;5062285;28;20041;-84
2021/11/02 14:16:41;;;;;;;10.68;2.10;;;18.60;96.70;;;;;;5062951;28;20055;-82
2021/11/02 14:19:38;;;;;;;12.90;2.08;;;18.60;96.70;;;;;;5061000;28;20037;-84
2021/11/02 14:22:09;;;;;;;6.43;1.42;;;18.60;96.70;;;;;;5054727;28;20354;-84
2021/11/02 14:24:40;;;;;;;8.25;2.17;;;18.60;96.70;;;;;;5044232;28;20262;-83
2021/11/02 14:27:09;;;;;;;7.90;1.48;;;18.50;96.70;;;;;;5056770;28;20214;-84
2021/11/02 14:29:52;;;;;;;10.63;1.65;;;18.50;96.70;;;;;;5060022;28;20514;-85
2021/11/02 14:32:50;;;;;;;11.77;2.35;;;18.60;96.70;;;;;;5047006;28;20044;-83
2021/11/02 14:35:38;;;;;;;12.43;2.40;;;18.70;96.70;;;;;;5004352;28;20054;-84
2021/11/02 14:38:10;;;;;;;6.90;1.65;;;18.70;96.70;;;;;;5046114;28;20122;-81
2021/11/02 14:40:40;;;;;;;10.38;1.92;;;18.70;96.70;;;;;;5066341;28;20121;-84
2021/11/02 14:43:26;;;;;;;7.65;1.75;;;18.60;96.70;;;;;;5037251;28;20379;-84
2021/11/02 14:46:03;;;;;;;8.20;2.08;;;18.50;96.70;;;;;;5045330;28;20044;-84
2021/11/02 14:48:44;;;;;;;9.70;2.00;;;18.40;96.70;;;;;;5060505;28;20063;-85
2021/11/02 14:51:25;;;;;;;10.73;2.25;;;18.40;96.70;;;;;;5062018;28;20045;-85
2021/11/02 14:53:58;;;;;;;11.48;1.95;;;18.30;96.70;;;;;;5047058;28;20044;-82
2021/11/02 14:56:33;;;;;;;9.02;2.40;;;18.30;96.70;;;;;;5065726;28;20053;-83
2021/11/02 14:59:04;;;;;;;8.68;1.73;;;18.30;96.70;;;;;;5064975;28;20141;-84
2021/11/02 15:02:09;;;;;;;11.85;1.52;;;18.30;96.70;;;;;;5049182;28;20103;-85
2021/11/02 15:04:39;;;;;;;12.57;1.98;;;18.40;96.70;;;;;;4985416;28;20046;-85
2021/11/02 15:07:08;;;;;;;10.82;1.95;;;18.60;96.70;;;;;;4964572;28;20141;-82
2021/11/02 15:09:40;;;;;;;7.75;2.05;;;19.20;96.70;;;;;;5025325;28;20055;-85
2021/11/02 15:12:09;;;;;;;8.93;1.70;;;18.90;96.70;;;;;;5058813;28;20114;-85
2021/11/02 15:14:41;;;;;;;6.68;1.50;;;19.80;96.70;;;;;;5065905;28;20111;-84
2021/11/02 15:17:10;;;;;;;6.05;1.45;;;20.00;96.70;;;;;;5062716;28;20215;-86
2021/11/02 15:19:44;;;;;;;9.13;1.88;;;20.10;96.70;;;;;;5047031;28;20048;-84
2021/11/02 15:22:16;;;;;;;7.25;1.83;;;19.50;96.70;;;;;;5048830;28;20490;-81
2021/11/02 15:24:50;;;;;;;8.60;1.23;;;19.20;96.70;;;;;;5039964;28;20053;-84
2021/11/02 15:27:21;;;;;;;13.45;1.92;;;18.80;96.70;;;;;;5063838;28;20047;-84
2021/11/02 15:29:51;;;;;;;9.50;1.65;;;19.20;96.70;;;;;;5063926;28;20049;-83
2021/11/02 15:32:21;;;;;;;9.27;1.55;;;19.30;96.70;;;;;;5079668;28;20040;-84
2021/11/02 15:34:51;;;;;;;8.25;1.75;;;18.70;96.70;;;;;;5066984;28;20262;-84
2021/11/02 15:37:22;;;;;;;12.32;2.20;;;18.30;96.70;;;;;;5064583;28;20028;-83
2021/11/02 15:39:55;;;;;;;7.80;1.20;;;18.20;96.70;;;;;;5065423;28;20054;-84
2021/11/02 15:42:30;;;;;;;4.57;1.17;;;18.00;96.70;;;;;;5062289;28;20127;-84
2021/11/02 15:45:00;;;;;;;6.88;1.13;;;17.90;96.70;;;;;;5066741;28;20119;-84
2021/11/02 15:47:30;;;;;;;7.03;1.20;;;17.70;96.70;;;;;;5063253;28;20119;-83
2021/11/02 15:50:00;;;;;;;8.07;1.33;;;17.60;96.70;;;;;;5061250;28;20037;-84
2021/11/02 15:52:30;;;;;;;4.78;0.80;;;17.60;96.70;;;;;;5060111;28;20052;-83
2021/11/02 15:55:06;;;;;;;7.43;1.80;;;17.50;96.70;;;;;;5058750;28;20148;-84
2021/11/02 15:57:40;;;;;;;5.35;1.25;;;17.40;96.70;;;;;;5077972;28;20047;-84
2021/11/02 16:00:11;;;;;;;7.10;1.58;;;17.40;96.70;;;;;;5043986;28;20083;-84
2021/11/02 16:02:42;;;;;;;7.30;1.30;;;17.30;96.70;;;;;;5064358;28;20119;-83
2021/11/02 16:05:11;;;;;;;5.97;1.30;;;17.30;96.70;;;;;;5062496;28;20056;-82
2021/11/02 16:07:39;;;;;;;6.65;1.30;;;17.20;96.70;;;;;;5044641;28;20283;-83
2021/11/02 16:10:09;;;;;;;6.72;1.33;;;17.20;96.70;;;;;;5062872;28;20125;-83
2021/11/02 16:12:40;;;;;;;11.10;1.75;;;17.10;96.70;;;;;;5047010;28;20041;-83
2021/11/02 16:15:13;;;;;;;9.65;2.08;;;17.10;96.70;;;;;;5045491;28;20075;-83
2021/11/02 16:17:44;;;;;;;8.32;1.42;;;17.00;96.70;;;;;;5064180;28;20044;-84
2021/11/02 16:20:21;;;;;;;9.43;1.70;;;17.00;96.70;;;;;;5060112;28;20044;-83
2021/11/02 16:22:50;;;;;;;;;;;17.00;96.70;;;;;;5064091;28;20049;-83
2021/11/02 16:25:21;;;;;;;8.48;1.98;;;17.00;96.70;;;;;;5063452;28;19968;-83
2021/11/02 16:27:55;;;;;;;8.95;1.25;;;16.90;96.70;;;;;;5062218;28;20055;-83
2021/11/02 16:30:26;;;;;;;9.85;1.55;;;16.90;96.70;;;;;;5057111;28;20037;-83
2021/11/02 16:32:56;;;;;;;8.00;1.80;;;16.90;96.70;;;;;;5046835;28;20071;-83
2021/11/02 16:35:37;;;;;;;12.98;1.88;;;16.90;96.70;;;;;;5064879;28;20040;-83
2021/11/02 16:38:23;;;;;;;6.13;1.48;;;17.00;96.70;;;;;;5058771;28;20049;-83
2021/11/02 16:40:54;;;;;;;9.82;2.10;;;17.00;96.70;;;;;;5077124;28;20052;-83
2021/11/02 16:43:28;;;;;;;13.05;2.45;;;16.90;96.70;;;;;;5054388;28;20170;-83
2021/11/02 16:45:57;;;;;;;10.60;2.97;;;17.00;96.70;;;;;;5061458;28;20060;-83
2021/11/02 16:48:41;;;;;;;14.55;3.28;;;17.00;96.70;;;;;;5058393;28;20041;-82
2021/11/02 16:51:10;;;;;;;11.63;2.90;;;17.00;96.70;;;;;;5063366;28;20484;-83
2021/11/02 16:53:39;;;;;;;11.23;2.03;;;17.00;96.70;;;;;;5061476;28;20091;-83
2021/11/02 16:56:21;;;;;;;11.18;2.15;;;17.00;96.70;;;;;;5064102;28;20779;-83
2021/11/02 16:58:51;;;;;;;11.50;1.50;;;16.90;96.70;;;;;;5045670;28;20443;-82
2021/11/02 17:01:26;;;;;;;6.80;1.50;;;16.90;96.70;;;;;;5060512;28;20041;-82
2021/11/02 17:03:58;;;;;;;9.95;2.20;;;16.80;96.70;;;;;;5062453;28;20419;-81
2021/11/02 17:06:31;;;;;;;9.23;2.10;;;16.80;96.70;;;;;;5068752;28;20052;-82
2021/11/02 17:09:17;;;;;;;9.68;1.80;;;16.80;96.70;;;;;;5058233;28;20155;-83
2021/11/02 17:11:55;;;;;;;9.13;1.90;;;16.70;96.70;;;;;;5057893;28;20045;-84
2021/11/02 17:14:24;;;;;;;11.93;2.20;;;16.70;96.70;;;;;;5060637;28;20516;-83
2021/11/02 17:16:55;;;;;;;11.57;2.33;;;16.60;96.70;;;;;;5045862;28;20126;-84
2021/11/02 17:19:24;;;;;;;8.43;1.95;;;16.60;96.70;;;;;;5063193;28;20032;-83
2021/11/02 17:21:55;;;;;;;8.85;1.77;;;16.70;96.70;;;;;;5063769;28;20567;-82
2021/11/02 17:24:26;;;;;;;10.13;2.40;;;16.70;96.70;;;;;;5042939;28;20052;-83
2021/11/02 17:26:56;;;;;;;14.10;2.10;;;16.70;96.70;;;;;;5045467;28;20085;-83
2021/11/02 17:29:25;;;;;;;9.13;2.13;;;16.60;96.70;;;;;;5062328;28;20049;-84
2021/11/02 17:31:54;;;;;;;10.77;2.10;;;16.60;96.70;;;;;;5060953;28;20036;-83
2021/11/02 17:34:23;;;;;;;13.27;2.83;;;16.60;96.70;;;;;;5064233;28;21081;-83
2021/11/02 17:36:55;;;;;;;8.63;2.13;;;16.60;96.70;;;;;;5062896;28;20079;-83
2021/11/02 17:39:24;;;;;;;8.20;2.08;;;16.60;96.70;;;;;;5069155;28;20036;-82
2021/11/02 17:41:55;;;;;;;10.85;2.30;;;16.60;96.70;;;;;;5059726;28;20126;-82
2021/11/02 17:44:24;;;;;;;10.05;2.33;;;16.50;96.70;;;;;;5047238;28;20044;-82
2021/11/02 17:46:53;;;;;;;15.43;4.05;;;16.50;96.70;;;;;;5045063;28;20113;-83
2021/11/02 17:49:22;;;;;;;21.63;4.28;;;16.60;96.70;;;;;;5064424;28;20036;-83
2021/11/02 17:51:51;;;;;;;17.38;7.40;;;16.50;96.70;;;;;;5045428;28;20588;-82
2021/11/02 17:54:20;;;;;;;22.17;8.10;;;16.50;96.70;;;;;;5060523;28;20048;-82
2021/11/02 17:56:49;;;;;;;15.05;3.28;;;16.50;96.70;;;;;;5060570;28;20048;-82
2021/11/02 17:59:21;;;;;;;15.25;4.85;;;16.50;96.70;;;;;;5058490;28;20040;-82
2021/11/02 18:01:51;;;;;;;11.15;3.17;;;16.50;96.70;;;;;;5061053;28;20032;-83
2021/11/02 18:04:20;;;;;;;13.30;2.95;;;16.50;96.70;;;;;;5057683;28;20147;-82
2021/11/02 18:06:48;;;;;;;14.93;5.13;;;16.40;96.70;;;;;;5060160;28;20045;-82